createdAt,value
2022-08-28T09:26:31.472Z,99244.91
2022-08-28T09:36:34.315Z,99238.47
2022-08-28T09:46:39.377Z,99223.84
2022-08-28T09:56:57.805Z,99233.75
2022-08-28T10:08:35.828Z,99225.44
2022-08-28T12:50:57.256Z,99213.34
2022-08-28T13:01:22.661Z,99208.97
2022-08-28T13:11:39.293Z,99211.16
2022-08-28T13:23:07.696Z,99218.84
2022-08-28T13:33:24.383Z,99213.44
2022-08-28T13:43:53.500Z,99212.88
2022-08-28T14:18:12.771Z,99222.31
2022-08-28T14:40:07.624Z,99237.91
2022-08-28T15:26:06.536Z,99254.16
2022-08-28T16:46:44.681Z,99321.22
2022-08-28T16:56:51.993Z,99320.81
2022-08-28T17:06:59.063Z,99335.97
2022-08-28T17:17:01.590Z,99331.03
2022-08-28T17:27:07.198Z,99365.91
2022-08-28T17:37:35.176Z,99366.16
2022-08-28T17:58:20.620Z,99386.50
2022-08-28T18:08:48.095Z,99390.97
2022-08-28T18:19:06.176Z,99401.38
2022-08-28T18:29:11.094Z,99405.88
2022-08-28T18:39:13.220Z,99400.50
2022-08-28T18:49:18.312Z,99401.84
2022-08-28T18:59:21.266Z,99389.72
2022-08-28T19:09:29.059Z,99386.44
2022-08-28T19:19:47.887Z,99391.97
2022-08-28T19:29:52.142Z,99390.25
2022-08-28T19:39:56.043Z,99388.72
2022-08-28T19:49:59.095Z,99386.41
2022-08-28T20:00:01.223Z,99385.72
2022-08-28T20:10:06.228Z,99390.28
2022-08-28T20:20:11.740Z,99397.78
2022-08-28T20:40:44.980Z,99375.53
2022-08-28T20:50:55.224Z,99377.06
2022-08-28T21:01:00.597Z,99392.66
2022-08-28T21:11:07.311Z,99398.94
2022-08-28T21:21:10.311Z,99392.78
2022-08-28T21:31:13.613Z,99390.34
2022-08-28T21:41:15.697Z,99401.28
2022-08-28T21:51:28.760Z,99396.81
2022-08-28T22:01:31.865Z,99419.66
2022-08-28T22:11:42.747Z,99416.75
2022-08-28T22:22:07.104Z,99417.13
2022-08-28T22:32:11.066Z,99420.31
2022-08-28T22:42:21.299Z,99410.47
2022-08-28T23:13:50.659Z,99451.22
2022-08-28T23:24:18.652Z,99448.44
2022-08-28T23:34:28.377Z,99444.50
2022-08-28T23:44:44.126Z,99440.53
2022-08-28T23:54:53.899Z,99446.69
